Time;durP1;ratioP1;P1;durP2;ratioP2;P2;SDS_P1;SDS_P2;PMS_P1;PMS_P2;Temp;Humidity;BMP_temperature;BMP_pressure;BME280_temperature;BME280_humidity;BME280_pressure;Samples;Min_cycle;Max_cycle;Signal;HPM_P1;HPM_P2
2022/10/16 00:01:38;;;;;;;8.32;3.90;;;;;;;17.06;61.33;100910.53;5053908;28;20044;-69
2022/10/16 00:04:08;;;;;;;9.05;3.47;;;;;;;17.06;61.26;100910.53;5054471;28;20045;-69
2022/10/16 00:06:35;;;;;;;7.40;3.40;;;;;;;17.06;61.24;100907.84;5053542;28;20053;-69
2022/10/16 00:09:02;;;;;;;4.95;3.00;;;;;;;17.06;61.21;100910.53;5052691;28;20051;-69
2022/10/16 00:11:33;;;;;;;8.35;3.70;;;;;;;17.07;61.23;100906.81;5053724;28;20098;-69
2022/10/16 00:14:07;;;;;;;8.65;3.67;;;;;;;17.07;61.30;100912.25;5054085;28;20412;-71
2022/10/16 00:16:35;;;;;;;7.38;3.30;;;;;;;17.07;61.25;100898.69;5053857;28;20040;-70
2022/10/16 00:19:02;;;;;;;5.38;3.10;;;;;;;17.06;61.50;100888.84;5053583;28;20037;-70
2022/10/16 00:21:30;;;;;;;6.13;3.65;;;;;;;17.06;61.27;100896.13;5053628;28;20029;-70
2022/10/16 00:24:06;;;;;;;6.55;3.20;;;;;;;17.06;61.76;100905.13;5053741;28;20106;-70
2022/10/16 00:26:34;;;;;;;7.53;3.20;;;;;;;17.08;61.64;100910.41;5053347;28;20049;-69
2022/10/16 00:29:01;;;;;;;7.07;3.10;;;;;;;17.07;61.39;100905.97;5052503;28;20110;-69
2022/10/16 00:31:28;;;;;;;4.70;3.63;;;;;;;17.06;61.72;100912.41;5037078;28;20079;-70
2022/10/16 00:33:56;;;;;;;5.90;3.35;;;;;;;17.06;61.60;100904.25;5052455;28;20049;-70
2022/10/16 00:36:25;;;;;;;5.93;3.25;;;;;;;17.05;61.76;100907.97;5052818;28;20130;-70
2022/10/16 00:38:54;;;;;;;5.38;3.00;;;;;;;17.07;61.64;100911.41;5033871;28;20050;-69
2022/10/16 00:41:22;;;;;;;5.95;3.03;;;;;;;17.05;61.70;100906.13;5044241;28;20045;-69
2022/10/16 00:46:26;;;;;;;7.00;2.67;;;;;;;17.01;61.67;100902.00;5053006;28;20045;-69
2022/10/16 00:49:00;;;;;;;3.15;2.05;;;;;;;17.02;61.45;100902.84;5053263;28;20118;-70
2022/10/16 00:51:32;;;;;;;3.33;2.40;;;;;;;17.02;61.39;100908.28;5053044;28;20548;-70
2022/10/16 00:54:08;;;;;;;3.83;2.38;;;;;;;17.03;61.79;100910.00;5052776;28;20045;-71
2022/10/16 00:56:34;;;;;;;3.75;2.25;;;;;;;17.01;61.59;100910.13;5053198;28;20098;-69
2022/10/16 00:59:07;;;;;;;3.90;2.53;;;;;;;17.01;61.46;100910.13;5053162;28;20056;-70
2022/10/16 01:01:33;;;;;;;5.07;2.70;;;;;;;17.01;61.53;100906.56;5053322;28;20045;-70
2022/10/16 01:04:02;;;;;;;5.38;2.47;;;;;;;17.01;61.63;100912.84;5053161;28;20119;-70
2022/10/16 01:06:49;;;;;;;4.82;2.20;;;;;;;17.01;61.70;100909.28;5049468;28;20413;-70
2022/10/16 01:09:35;;;;;;;5.22;2.60;;;;;;;17.01;61.37;100906.56;5052958;28;20162;-69
2022/10/16 01:12:11;;;;;;;4.95;2.50;;;;;;;17.00;61.40;100911.16;5052528;28;20045;-69
2022/10/16 01:14:47;;;;;;;2.78;2.30;;;;;;;16.99;61.67;100906.72;5052608;28;20086;-69
2022/10/16 01:17:37;;;;;;;4.57;2.65;;;;;;;16.98;61.63;100896.88;5049634;28;20110;-69
2022/10/16 01:20:27;;;;;;;3.53;2.40;;;;;;;16.94;61.57;100895.47;5051278;28;20045;-69
2022/10/16 01:23:05;;;;;;;4.30;2.30;;;;;;;16.92;61.39;100897.47;5052321;28;20033;-69
2022/10/16 01:26:06;;;;;;;3.28;2.35;;;;;;;16.91;61.80;100897.63;5052428;28;20037;-69
2022/10/16 01:28:41;;;;;;;5.68;2.42;;;;;;;16.90;61.60;100898.63;5043726;28;20387;-69
2022/10/16 01:31:11;;;;;;;4.38;2.15;;;;;;;16.87;61.67;100910.63;5052543;28;20041;-68
2022/10/16 01:37:46;;;;;;;3.95;2.20;;;;;;;16.85;61.58;100909.91;5052565;28;20041;-69
2022/10/16 01:40:16;;;;;;;4.97;2.33;;;;;;;16.83;61.93;100911.91;5052257;28;20441;-69
2022/10/16 01:42:48;;;;;;;4.05;2.00;;;;;;;16.83;62.10;100907.34;5052071;28;20095;-69
2022/10/16 01:45:19;;;;;;;6.95;2.20;;;;;;;16.84;62.07;100908.22;5052322;28;20065;-69
2022/10/16 01:47:47;;;;;;;3.88;2.30;;;;;;;16.84;62.13;100908.22;5051451;28;20056;-69
2022/10/16 01:50:16;;;;;;;5.20;2.45;;;;;;;16.86;61.91;100911.63;5052106;28;20056;-69
2022/10/16 01:52:47;;;;;;;4.35;2.53;;;;;;;16.87;62.07;100921.47;5052104;28;20107;-69
2022/10/16 01:55:20;;;;;;;4.60;2.00;;;;;;;16.89;62.02;100911.31;5050770;28;20044;-69
2022/10/16 01:57:50;;;;;;;2.83;2.10;;;;;;;16.91;61.85;100914.75;5051327;28;20467;-69
2022/10/16 02:00:19;;;;;;;5.18;2.50;;;;;;;16.91;61.99;100914.75;5052053;28;20495;-69
2022/10/16 02:02:52;;;;;;;5.07;2.60;;;;;;;16.92;62.22;100912.91;5050361;28;20041;-69
2022/10/16 02:05:28;;;;;;;4.03;2.20;;;;;;;16.93;62.04;100920.03;5050720;28;20458;-70
2022/10/16 02:07:55;;;;;;;4.55;2.20;;;;;;;16.93;62.19;100910.03;5048691;28;20061;-69
2022/10/16 02:10:24;;;;;;;5.07;2.00;;;;;;;16.95;62.32;100918.03;5051701;28;20376;-70
2022/10/16 02:13:00;;;;;;;2.67;2.08;;;;;;;16.95;62.03;100924.31;5051467;28;20112;-69
2022/10/16 02:15:28;;;;;;;2.13;1.92;;;;;;;16.97;62.29;100924.16;5051830;28;20469;-69
2022/10/16 02:17:54;;;;;;;3.50;2.22;;;;;;;16.99;62.22;100924.84;5051701;28;20429;-69
2022/10/16 02:20:26;;;;;;;5.75;2.13;;;;;;;17.00;62.19;100932.84;5051255;28;20499;-70
2022/10/16 02:22:55;;;;;;;3.05;2.17;;;;;;;17.03;61.97;100924.41;5051233;28;20514;-69
2022/10/16 02:25:31;;;;;;;3.60;2.08;;;;;;;17.02;62.21;100928.13;5052078;28;20040;-69
2022/10/16 02:28:08;;;;;;;4.22;2.30;;;;;;;17.02;62.02;100930.84;5051136;28;20052;-70
2022/10/16 02:30:41;;;;;;;2.80;2.03;;;;;;;17.01;62.16;100920.13;5043407;28;20928;-69
2022/10/16 02:33:13;;;;;;;2.03;1.70;;;;;;;17.00;62.06;100913.84;5051168;28;20495;-69
2022/10/16 02:35:41;;;;;;;3.88;2.50;;;;;;;17.00;62.22;100913.00;5051479;28;20052;-70
2022/10/16 02:38:09;;;;;;;4.18;1.85;;;;;;;16.98;62.33;100913.16;5051142;28;20052;-69
2022/10/16 02:40:42;;;;;;;2.55;1.92;;;;;;;16.98;62.44;100910.44;5051277;28;20029;-69
2022/10/16 02:43:10;;;;;;;2.97;1.85;;;;;;;16.98;62.10;100910.44;5051198;28;20041;-68
2022/10/16 02:45:37;;;;;;;3.20;1.52;;;;;;;16.97;61.70;100910.59;5051115;28;20037;-68
2022/10/16 02:48:04;;;;;;;2.13;1.70;;;;;;;16.96;61.89;100919.72;5051382;28;20400;-70
2022/10/16 02:50:31;;;;;;;2.20;2.00;;;;;;;16.91;62.28;100931.03;5050544;28;20499;-69
2022/10/16 02:52:57;;;;;;;2.10;1.70;;;;;;;16.90;62.17;100925.75;5050920;28;20041;-69
2022/10/16 02:55:26;;;;;;;4.65;1.70;;;;;;;16.88;62.23;100923.19;5050918;28;20409;-69
2022/10/16 02:57:53;;;;;;;3.42;2.00;;;;;;;16.86;62.11;100925.19;5050911;28;20292;-69
2022/10/16 03:00:20;;;;;;;3.00;1.70;;;;;;;16.86;61.75;100913.47;5051316;28;20082;-69
2022/10/16 03:02:47;;;;;;;3.30;1.98;;;;;;;16.84;62.17;100916.34;5049183;28;20537;-69
2022/10/16 03:05:14;;;;;;;2.10;1.80;;;;;;;16.82;61.94;100899.38;5050970;28;20086;-69
2022/10/16 03:07:41;;;;;;;3.10;1.77;;;;;;;16.81;62.08;100903.94;5050968;28;20037;-69
2022/10/16 03:10:08;;;;;;;3.90;2.00;;;;;;;16.81;62.20;100897.66;5050973;28;20131;-69
2022/10/16 03:12:35;;;;;;;2.40;1.83;;;;;;;16.80;62.22;100921.22;5050721;28;20072;-68
2022/10/16 03:15:03;;;;;;;2.28;1.63;;;;;;;16.79;61.90;100921.34;5050665;28;20442;-68
2022/10/16 03:17:29;;;;;;;2.78;1.88;;;;;;;16.78;62.15;100927.78;5050930;28;20041;-69
2022/10/16 03:19:56;;;;;;;4.00;1.70;;;;;;;16.77;62.18;100935.06;5049262;28;20068;-69
2022/10/16 03:22:22;;;;;;;3.40;2.28;;;;;;;16.77;61.92;100939.63;5049536;28;20454;-69
2022/10/16 03:24:52;;;;;;;3.55;1.90;;;;;;;16.75;62.22;100928.94;5050868;28;20048;-69
2022/10/16 03:27:18;;;;;;;5.18;1.90;;;;;;;16.74;62.01;100927.22;5050873;28;20576;-69
2022/10/16 03:29:45;;;;;;;2.35;1.70;;;;;;;16.73;61.82;100940.94;5050886;28;20049;-70
2022/10/16 03:32:11;;;;;;;3.05;1.70;;;;;;;16.72;61.74;100956.34;5049968;28;20487;-69
2022/10/16 03:34:42;;;;;;;3.00;1.60;;;;;;;16.72;62.11;100944.66;5050195;28;20044;-70
2022/10/16 03:37:09;;;;;;;4.57;2.17;;;;;;;16.71;62.14;100951.94;5050673;28;20094;-69
2022/10/16 03:39:35;;;;;;;2.47;1.70;;;;;;;16.70;62.21;100952.94;5050463;28;20095;-69
2022/10/16 03:42:02;;;;;;;2.78;1.75;;;;;;;16.68;61.77;100957.63;5050504;28;20041;-69
2022/10/16 03:44:33;;;;;;;3.03;1.73;;;;;;;16.65;62.05;100959.75;5049921;28;20068;-70
2022/10/16 03:47:00;;;;;;;2.55;1.88;;;;;;;16.62;62.04;100955.47;5050839;28;20319;-69
2022/10/16 03:49:26;;;;;;;4.10;2.17;;;;;;;16.59;62.34;100954.91;5050685;28;20491;-70
2022/10/16 03:51:53;;;;;;;8.30;2.58;;;;;;;16.56;61.93;100955.19;5050147;28;20045;-69
2022/10/16 03:54:22;;;;;;;3.53;1.80;;;;;;;16.56;62.10;100957.91;5050909;28;20041;-70
2022/10/16 03:56:48;;;;;;;4.22;1.73;;;;;;;16.55;61.98;100961.63;5050263;28;20057;-69
2022/10/16 03:59:15;;;;;;;2.50;1.70;;;;;;;16.56;61.90;100960.63;5050370;28;20045;-69
2022/10/16 04:01:41;;;;;;;3.28;1.95;;;;;;;16.56;62.40;100963.34;5050312;28;20398;-69
2022/10/16 04:04:14;;;;;;;3.72;2.00;;;;;;;16.55;62.42;100964.34;5049297;28;20487;-69
2022/10/16 04:06:40;;;;;;;3.25;1.90;;;;;;;16.55;62.42;100967.91;5049811;28;20494;-69
2022/10/16 04:09:07;;;;;;;4.35;1.95;;;;;;;16.55;62.49;100962.47;5050380;28;20345;-69
2022/10/16 04:11:33;;;;;;;2.85;1.83;;;;;;;16.58;62.25;100972.19;5051343;28;20048;-69
2022/10/16 04:14:02;;;;;;;2.13;1.70;;;;;;;16.59;62.04;100968.47;5054174;28;20356;-69
2022/10/16 04:16:29;;;;;;;2.20;1.60;;;;;;;16.57;62.19;100965.91;5053248;28;20099;-69
2022/10/16 04:18:55;;;;;;;2.63;1.73;;;;;;;16.56;62.42;100966.03;5053703;28;20047;-69
2022/10/16 04:21:22;;;;;;;3.20;1.60;;;;;;;16.54;62.29;100971.63;5053416;28;20579;-69
2022/10/16 04:23:49;;;;;;;3.92;1.70;;;;;;;16.53;62.59;100973.47;5053629;28;20041;-69
2022/10/16 04:26:34;;;;;;;4.82;1.65;;;;;;;16.53;62.10;100973.47;5053822;28;20052;-70
2022/10/16 04:29:00;;;;;;;2.22;1.80;;;;;;;16.53;62.60;100972.63;5053698;28;20291;-69
2022/10/16 04:31:27;;;;;;;2.88;1.67;;;;;;;16.52;62.67;100987.16;5052390;28;20124;-69
2022/10/16 04:33:57;;;;;;;2.97;1.83;;;;;;;16.52;62.31;100985.31;5052337;28;20122;-70
2022/10/16 04:36:24;;;;;;;2.47;1.75;;;;;;;16.53;62.65;100983.47;5053341;28;20057;-69
2022/10/16 04:38:54;;;;;;;2.60;1.60;;;;;;;16.53;62.70;100981.59;5053581;28;20499;-70
2022/10/16 04:41:21;;;;;;;3.75;1.83;;;;;;;16.55;62.69;100986.03;5053162;28;20072;-70
2022/10/16 04:43:48;;;;;;;4.32;1.63;;;;;;;16.55;62.35;100984.16;5053085;28;20058;-69
2022/10/16 04:46:22;;;;;;;2.88;1.70;;;;;;;16.55;62.70;100992.31;5053194;28;20509;-70
2022/10/16 04:48:49;;;;;;;3.72;1.90;;;;;;;16.55;62.67;100996.88;5033590;28;20099;-69
2022/10/16 04:51:16;;;;;;;4.93;2.08;;;;;;;16.54;62.41;100990.59;5048529;28;20053;-70
2022/10/16 04:53:42;;;;;;;5.03;1.90;;;;;;;16.53;62.66;100989.75;5053237;28;20045;-70
2022/10/16 04:56:10;;;;;;;3.65;1.70;;;;;;;16.53;62.74;100992.44;5053174;28;20542;-70
2022/10/16 04:58:36;;;;;;;5.18;1.80;;;;;;;16.53;62.47;101002.44;5053170;28;20098;-70
2022/10/16 05:01:03;;;;;;;3.15;1.80;;;;;;;16.52;62.59;101004.28;5052601;28;20596;-70
2022/10/16 05:03:30;;;;;;;2.80;1.80;;;;;;;16.53;62.65;101002.44;5052663;28;20076;-71
2022/10/16 05:05:56;;;;;;;2.90;1.75;;;;;;;16.53;62.71;101005.16;5052768;28;20052;-70
2022/10/16 05:08:23;;;;;;;3.65;1.70;;;;;;;16.53;62.64;101006.00;5052797;28;20071;-70
2022/10/16 05:10:49;;;;;;;4.80;1.60;;;;;;;16.52;62.88;101007.00;5052665;28;20044;-70
2022/10/16 05:13:16;;;;;;;5.10;2.08;;;;;;;16.51;62.94;101008.00;5051413;28;20399;-69
2022/10/16 05:15:48;;;;;;;4.85;1.73;;;;;;;16.51;62.82;101010.72;5052813;28;20048;-69
2022/10/16 05:18:15;;;;;;;2.55;1.80;;;;;;;16.51;62.94;101015.28;5052454;28;20037;-69
2022/10/16 05:20:42;;;;;;;2.58;1.77;;;;;;;16.51;62.66;101016.13;5053028;28;20044;-69
2022/10/16 05:23:12;;;;;;;2.08;1.48;;;;;;;16.51;62.71;101018.00;5051203;28;20041;-69
2022/10/16 05:25:55;;;;;;;4.72;1.83;;;;;;;16.50;63.05;101029.84;5052926;28;20503;-69
2022/10/16 05:28:21;;;;;;;3.53;1.90;;;;;;;16.49;62.88;101030.84;5052769;28;20115;-69
2022/10/16 05:30:48;;;;;;;2.55;1.45;;;;;;;16.50;62.90;101038.81;5051052;28;20136;-69
2022/10/16 05:33:15;;;;;;;4.68;2.20;;;;;;;16.49;63.00;101039.81;5050989;28;20041;-69
2022/10/16 05:35:43;;;;;;;3.90;1.73;;;;;;;16.48;62.87;101040.81;5053042;28;20098;-69
2022/10/16 05:38:10;;;;;;;3.78;1.60;;;;;;;16.49;63.03;101041.69;5052655;28;20549;-69
2022/10/16 05:40:36;;;;;;;5.55;1.80;;;;;;;16.48;62.77;101046.25;5050942;28;20106;-69
2022/10/16 05:43:03;;;;;;;3.05;1.50;;;;;;;16.48;62.79;101051.66;5052418;28;20037;-69
2022/10/16 05:45:42;;;;;;;2.90;1.80;;;;;;;16.48;62.85;101051.66;5052267;28;20078;-69
2022/10/16 05:48:08;;;;;;;3.33;2.00;;;;;;;16.47;63.09;101063.50;5052303;28;20103;-69
2022/10/16 05:50:34;;;;;;;3.40;1.80;;;;;;;16.47;62.67;101066.22;5051734;28;20075;-69
2022/10/16 05:53:01;;;;;;;4.00;1.90;;;;;;;16.46;63.00;101069.94;5052180;28;20075;-69
2022/10/16 05:55:27;;;;;;;3.92;1.92;;;;;;;16.47;62.93;101081.63;5052256;28;20040;-70
2022/10/16 05:57:54;;;;;;;3.45;2.00;;;;;;;16.45;62.74;101095.31;5052212;28;20037;-70
2022/10/16 06:00:21;;;;;;;3.92;2.10;;;;;;;16.44;63.13;101099.03;5052050;28;20041;-69
2022/10/16 06:02:47;;;;;;;4.07;2.00;;;;;;;16.45;63.08;101117.00;5051479;28;20309;-70
2022/10/16 06:05:16;;;;;;;2.85;1.83;;;;;;;16.45;62.87;101108.88;5051770;28;20449;-69
2022/10/16 06:07:43;;;;;;;2.88;1.83;;;;;;;16.45;62.86;101117.00;5051233;28;20084;-70
2022/10/16 06:10:09;;;;;;;4.43;2.00;;;;;;;16.44;62.48;101120.72;5051521;28;20044;-70
2022/10/16 06:12:36;;;;;;;2.53;1.58;;;;;;;16.43;62.55;101118.16;5051755;28;20041;-70
2022/10/16 06:15:04;;;;;;;3.08;1.75;;;;;;;16.42;62.56;101130.00;5050713;28;20037;-70
2022/10/16 06:17:31;;;;;;;4.47;2.05;;;;;;;16.41;63.10;101131.84;5051503;28;20037;-70
2022/10/16 06:19:57;;;;;;;3.05;1.95;;;;;;;16.42;62.88;101132.69;5051310;28;20111;-70
2022/10/16 06:22:24;;;;;;;8.80;2.47;;;;;;;16.40;62.80;101135.56;5051317;28;20060;-69
2022/10/16 06:24:50;;;;;;;2.65;1.63;;;;;;;16.39;62.72;101132.97;5050167;28;20045;-69
2022/10/16 06:27:17;;;;;;;4.00;1.92;;;;;;;16.36;63.05;101144.97;5051414;28;20045;-70
2022/10/16 06:29:44;;;;;;;3.65;2.10;;;;;;;16.35;63.04;101143.25;5051328;28;20041;-70
2022/10/16 06:32:11;;;;;;;2.40;1.80;;;;;;;16.36;62.93;101146.81;5051283;28;20045;-69
2022/10/16 06:34:40;;;;;;;4.97;1.85;;;;;;;16.36;62.98;101144.09;5049763;28;20311;-70
2022/10/16 06:37:09;;;;;;;4.05;2.10;;;;;;;16.35;63.11;101151.38;5031413;28;20037;-70
2022/10/16 06:39:36;;;;;;;4.00;1.92;;;;;;;16.36;63.14;101152.22;5031591;28;20095;-70
2022/10/16 06:42:02;;;;;;;3.22;2.03;;;;;;;16.36;62.66;101155.81;5031260;28;20038;-71
2022/10/16 06:44:39;;;;;;;2.63;1.77;;;;;;;16.38;62.92;101156.53;5032506;28;20385;-70
2022/10/16 06:47:05;;;;;;;3.70;2.20;;;;;;;16.37;63.07;101162.09;5048554;28;20132;-71
2022/10/16 06:49:32;;;;;;;5.15;2.20;;;;;;;16.35;62.93;101173.06;5051195;28;20040;-70
2022/10/16 06:51:59;;;;;;;4.28;2.33;;;;;;;16.34;62.81;101178.59;5050655;28;20552;-70
2022/10/16 06:54:29;;;;;;;4.57;2.20;;;;;;;16.34;63.21;101178.59;5051138;28;20053;-71
2022/10/16 06:56:55;;;;;;;3.85;2.33;;;;;;;16.37;63.26;101179.19;5050687;28;20036;-70
2022/10/16 06:59:22;;;;;;;4.97;2.22;;;;;;;16.43;63.52;101183.22;5049738;28;20503;-70
2022/10/16 07:01:49;;;;;;;3.75;2.30;;;;;;;16.48;63.50;101187.22;5050339;28;20041;-70
2022/10/16 07:04:17;;;;;;;3.55;2.47;;;;;;;16.56;63.51;101185.66;5050855;28;20037;-71
2022/10/16 07:06:43;;;;;;;6.63;2.08;;;;;;;16.65;63.91;101193.84;5050880;28;20041;-70
2022/10/16 07:09:10;;;;;;;3.28;2.28;;;;;;;16.72;63.66;101199.56;5050635;28;20098;-71
2022/10/16 07:11:38;;;;;;;4.22;1.92;;;;;;;16.78;63.78;101204.44;5050449;28;20087;-70
2022/10/16 07:14:18;;;;;;;3.95;2.25;;;;;;;16.84;63.51;101206.59;5050892;28;20048;-71
2022/10/16 07:16:45;;;;;;;4.28;1.80;;;;;;;16.90;63.56;101211.44;5050648;28;20384;-71
2022/10/16 07:19:15;;;;;;;4.80;2.42;;;;;;;16.95;63.33;101220.03;5050397;28;20565;-70
2022/10/16 07:21:42;;;;;;;4.63;2.30;;;;;;;16.98;63.51;101213.47;5050332;28;20045;-70
2022/10/16 07:24:15;;;;;;;3.92;1.92;;;;;;;16.99;63.18;101217.88;5050863;28;20119;-70
2022/10/16 07:26:44;;;;;;;2.92;2.00;;;;;;;17.01;63.34;101226.75;5050675;28;20045;-71
2022/10/16 07:29:16;;;;;;;6.50;2.28;;;;;;;17.04;63.12;101231.88;5050382;28;20045;-70
2022/10/16 07:31:43;;;;;;;6.93;2.50;;;;;;;17.07;63.41;101245.16;5050103;28;20045;-71
2022/10/16 07:34:17;;;;;;;4.40;2.05;;;;;;;17.08;63.18;101239.59;5050672;28;20045;-68
2022/10/16 07:36:43;;;;;;;3.88;2.25;;;;;;;17.10;63.19;101242.22;5050199;28;20044;-69
2022/10/16 07:39:10;;;;;;;5.07;2.40;;;;;;;17.11;63.53;101249.34;5049967;28;20076;-68
2022/10/16 07:41:36;;;;;;;3.10;2.10;;;;;;;17.13;63.23;101252.78;5050447;28;20103;-70
2022/10/16 07:44:07;;;;;;;3.50;1.92;;;;;;;17.15;63.22;101248.94;5050661;28;20033;-69
2022/10/16 07:46:35;;;;;;;4.30;2.50;;;;;;;17.18;63.26;101260.50;5035629;28;20094;-70
2022/10/16 07:49:03;;;;;;;4.57;1.95;;;;;;;17.21;63.40;101262.94;5054226;28;20136;-70
2022/10/16 07:51:29;;;;;;;2.65;2.33;;;;;;;17.24;63.30;101271.66;5054184;28;20041;-70
2022/10/16 07:53:58;;;;;;;5.93;2.13;;;;;;;17.26;63.37;101269.66;5054240;28;20075;-70
2022/10/16 07:56:24;;;;;;;4.15;2.10;;;;;;;17.32;63.66;101276.38;5054308;28;20071;-70
2022/10/16 07:58:52;;;;;;;2.83;1.90;;;;;;;17.36;63.60;101283.22;5054199;28;20100;-70
2022/10/16 08:01:19;;;;;;;3.63;1.95;;;;;;;17.41;63.73;101280.94;5054139;28;20072;-70
2022/10/16 08:03:48;;;;;;;5.05;1.95;;;;;;;17.49;63.48;101281.09;5054171;28;20073;-70
2022/10/16 08:06:23;;;;;;;2.45;1.73;;;;;;;17.59;64.04;101276.50;5053931;28;20049;-70
2022/10/16 08:08:54;;;;;;;4.53;1.92;;;;;;;17.71;63.93;101280.81;5054149;28;20094;-70
2022/10/16 08:11:20;;;;;;;3.17;2.00;;;;;;;17.84;64.21;101283.25;5053974;28;20044;-70
2022/10/16 08:13:47;;;;;;;3.10;1.60;;;;;;;18.00;63.57;101298.97;5053916;28;20453;-70
2022/10/16 08:16:13;;;;;;;2.17;1.55;;;;;;;18.15;63.77;101302.94;5053955;28;20057;-70
2022/10/16 08:18:40;;;;;;;5.40;1.83;;;;;;;18.32;63.64;101301.31;5053786;28;20044;-67
2022/10/16 08:21:13;;;;;;;4.30;1.38;;;;;;;18.46;63.25;101306.28;5052712;28;20487;-69
2022/10/16 08:23:47;;;;;;;3.30;1.67;;;;;;;18.64;63.52;101315.41;5052146;28;20080;-70
2022/10/16 08:26:26;;;;;;;5.88;1.67;;;;;;;18.82;63.14;101311.91;5053552;28;20126;-70
2022/10/16 08:28:52;;;;;;;2.88;1.60;;;;;;;18.98;62.82;101323.00;5053391;28;20576;-69
2022/10/16 08:31:19;;;;;;;5.18;1.52;;;;;;;19.11;62.47;101320.75;5053795;28;20033;-69
2022/10/16 08:33:47;;;;;;;3.92;1.55;;;;;;;19.21;62.43;101323.41;5053450;28;20041;-71
2022/10/16 08:36:15;;;;;;;6.55;1.98;;;;;;;19.31;61.96;101330.50;5052141;28;20079;-69
2022/10/16 08:38:42;;;;;;;4.35;1.65;;;;;;;19.42;61.93;101331.34;5053538;28;20041;-70
2022/10/16 08:41:28;;;;;;;4.50;1.48;;;;;;;19.52;61.60;101335.72;5053048;28;20495;-70
2022/10/16 08:44:40;;;;;;;2.92;1.50;;;;;;;19.65;61.39;101344.38;5031469;28;20053;-70
2022/10/16 08:47:17;;;;;;;6.90;1.33;;;;;;;19.79;61.50;101344.84;5052785;28;20576;-69
2022/10/16 08:49:57;;;;;;;8.85;2.03;;;;;;;19.89;61.11;101351.06;5053080;28;20052;-69
2022/10/16 08:52:32;;;;;;;3.90;1.58;;;;;;;20.03;60.86;101345.03;5053463;28;20064;-70
2022/10/16 08:54:58;;;;;;;2.38;1.52;;;;;;;20.18;60.61;101345.34;5053457;28;20048;-70
2022/10/16 08:57:26;;;;;;;4.47;1.38;;;;;;;20.28;60.57;101352.41;5052511;28;20037;-70
2022/10/16 09:00:00;;;;;;;3.63;1.25;;;;;;;20.36;59.95;101358.94;5051553;28;20037;-69
2022/10/16 09:02:26;;;;;;;3.83;1.65;;;;;;;20.41;59.97;101362.09;5052953;28;20048;-70
2022/10/16 09:05:28;;;;;;;3.60;1.63;;;;;;;20.45;59.70;101360.75;5053165;28;20368;-69
2022/10/16 09:07:58;;;;;;;3.70;1.50;;;;;;;20.55;59.73;101366.94;5052165;28;20075;-69
2022/10/16 09:10:54;;;;;;;1.97;1.40;;;;;;;20.58;59.37;101363.91;5053179;28;20084;-70
2022/10/16 09:13:29;;;;;;;8.27;2.15;;;;;;;20.64;59.38;101371.44;5052803;28;20090;-69
2022/10/16 09:16:14;;;;;;;3.65;1.70;;;;;;;20.70;59.20;101370.78;5052948;28;20057;-69
2022/10/16 09:19:04;;;;;;;4.43;1.48;;;;;;;20.82;59.16;101380.44;5052851;28;20051;-69
2022/10/16 09:21:38;;;;;;;3.50;1.50;;;;;;;20.93;58.80;101382.03;5041809;28;20294;-69
2022/10/16 09:24:25;;;;;;;3.95;1.50;;;;;;;21.01;58.61;101393.00;5052520;28;20045;-70
2022/10/16 09:26:54;;;;;;;5.63;1.88;;;;;;;21.09;58.83;101392.16;5052128;28;20044;-69
2022/10/16 09:29:23;;;;;;;3.13;1.20;;;;;;;21.12;58.33;101392.69;5051866;28;20045;-69
2022/10/16 09:31:51;;;;;;;4.75;1.50;;;;;;;21.18;58.28;101391.19;5052016;28;20092;-70
2022/10/16 09:34:39;;;;;;;4.63;1.58;;;;;;;21.28;58.24;101391.94;5052427;28;20503;-69
2022/10/16 09:37:16;;;;;;;4.78;1.60;;;;;;;21.43;58.10;101395.75;5052458;28;20392;-69
2022/10/16 09:39:49;;;;;;;7.75;1.70;;;;;;;21.54;57.98;101386.38;5052221;28;20099;-70
2022/10/16 09:42:21;;;;;;;5.28;1.70;;;;;;;21.66;57.75;101389.69;5051668;28;20549;-70
2022/10/16 09:44:50;;;;;;;4.15;1.60;;;;;;;21.76;57.74;101393.97;5052191;28;20052;-70
2022/10/16 09:47:30;;;;;;;6.78;1.40;;;;;;;21.85;57.04;101401.16;5051981;28;20040;-70
2022/10/16 09:50:02;;;;;;;3.33;1.98;;;;;;;21.96;57.05;101396.38;5052465;28;20056;-70
2022/10/16 09:52:29;;;;;;;4.35;1.40;;;;;;;22.02;56.61;101396.56;5051589;28;20051;-70
2022/10/16 09:55:12;;;;;;;4.78;1.42;;;;;;;22.07;56.21;101391.47;5052034;28;20036;-70
2022/10/16 09:57:59;;;;;;;4.70;1.33;;;;;;;22.16;56.24;101401.38;5050877;28;20119;-70
2022/10/16 10:00:25;;;;;;;3.08;1.60;;;;;;;22.29;56.22;101400.00;5052085;28;20045;-70
2022/10/16 10:02:54;;;;;;;4.07;1.40;;;;;;;22.39;55.99;101397.97;5051731;28;20114;-70
2022/10/16 10:05:28;;;;;;;6.30;1.25;;;;;;;22.45;55.74;101405.50;5052124;28;20112;-70
2022/10/16 10:07:58;;;;;;;5.45;1.77;;;;;;;22.49;55.54;101401.38;5051861;28;20095;-70
2022/10/16 10:10:27;;;;;;;5.80;1.65;;;;;;;22.58;55.37;101407.69;5050772;28;20560;-71
2022/10/16 10:12:55;;;;;;;3.40;1.30;;;;;;;22.71;55.44;101405.28;5051106;28;20071;-70
2022/10/16 10:15:27;;;;;;;3.83;1.42;;;;;;;22.83;55.21;101415.72;5051589;28;20110;-71
2022/10/16 10:17:56;;;;;;;4.43;1.52;;;;;;;22.88;54.78;101409.72;5051115;28;20573;-70
2022/10/16 10:20:34;;;;;;;7.07;1.60;;;;;;;22.94;54.67;101419.13;5051524;28;20098;-70
2022/10/16 10:23:22;;;;;;;8.05;2.08;;;;;;;22.99;54.39;101414.81;5050885;28;20091;-69
2022/10/16 10:26:12;;;;;;;6.80;2.67;;;;;;;23.04;54.19;101408.84;5051604;28;20048;-69
2022/10/16 10:29:01;;;;;;;9.18;3.75;;;;;;;23.13;54.09;101413.25;5051204;28;20057;-69
2022/10/16 10:31:47;;;;;;;8.52;2.80;;;;;;;23.18;53.66;101423.69;5051250;28;20048;-69
2022/10/16 10:34:39;;;;;;;10.98;5.18;;;;;;;23.19;53.43;101429.00;5051724;28;20037;-70
2022/10/16 10:37:14;;;;;;;8.85;3.42;;;;;;;23.18;53.22;101437.38;5051421;28;20162;-69
2022/10/16 10:40:07;;;;;;;9.35;3.10;;;;;;;23.16;52.52;101434.81;5051405;28;20040;-70
2022/10/16 10:42:49;;;;;;;10.63;1.90;;;;;;;23.19;52.33;101441.84;5040463;28;20056;-70
2022/10/16 10:45:27;;;;;;;6.93;2.45;;;;;;;23.14;52.06;101445.97;5051841;28;20045;-69
2022/10/16 10:48:38;;;;;;;5.85;2.65;;;;;;;23.13;52.04;101443.41;5051248;28;20094;-69
2022/10/16 10:51:20;;;;;;;12.57;2.72;;;;;;;23.12;52.06;101434.31;5047645;28;20142;-70
2022/10/16 10:54:28;;;;;;;9.43;2.15;;;;;;;23.04;51.71;101438.97;5049860;28;20306;-69
2022/10/16 10:57:21;;;;;;;6.57;1.73;;;;;;;22.99;52.00;101438.63;5051552;28;20037;-69
2022/10/16 11:00:30;;;;;;;8.98;2.22;;;;;;;22.93;51.61;101444.78;5050827;28;20595;-69
2022/10/16 11:03:09;;;;;;;6.45;1.73;;;;;;;22.90;51.39;101435.03;5030697;28;20049;-69
2022/10/16 11:05:50;;;;;;;5.72;2.17;;;;;;;22.89;51.39;101437.97;5031012;28;20041;-69
2022/10/16 11:08:26;;;;;;;7.15;2.38;;;;;;;22.90;51.15;101439.66;5030913;28;20041;-69
2022/10/16 11:10:58;;;;;;;8.02;1.80;;;;;;;22.93;51.29;101442.06;5043326;28;20049;-69
2022/10/16 11:13:40;;;;;;;6.03;1.80;;;;;;;23.00;51.27;101445.81;5050709;28;20087;-69
2022/10/16 11:16:40;;;;;;;9.98;3.00;;;;;;;23.07;51.01;101449.59;5050698;28;20154;-69
2022/10/16 11:19:31;;;;;;;7.72;1.80;;;;;;;23.18;50.86;101449.19;5050739;28;20098;-69
2022/10/16 11:22:07;;;;;;;5.15;1.63;;;;;;;23.23;50.43;101448.66;5053458;28;20033;-70
2022/10/16 11:24:48;;;;;;;6.25;2.25;;;;;;;23.21;50.15;101443.38;5055214;28;20098;-69
2022/10/16 11:27:19;;;;;;;4.57;1.70;;;;;;;23.19;50.16;101445.44;5054923;28;20507;-70
2022/10/16 11:30:01;;;;;;;7.85;1.77;;;;;;;23.16;49.62;101454.00;5054747;28;20052;-69
2022/10/16 11:32:45;;;;;;;5.07;1.63;;;;;;;23.13;49.83;101448.88;5052847;28;20045;-69
2022/10/16 11:35:22;;;;;;;8.68;1.85;;;;;;;23.14;49.63;101447.84;5054896;28;20044;-68
2022/10/16 11:37:51;;;;;;;7.85;2.05;;;;;;;23.09;49.20;101444.78;5054730;28;20071;-69
2022/10/16 11:40:31;;;;;;;12.25;1.67;;;;;;;23.05;49.22;101454.38;5052965;28;20049;-69
2022/10/16 11:43:06;;;;;;;6.53;1.77;;;;;;;23.00;48.87;101456.75;5054071;28;20414;-69
2022/10/16 11:45:32;;;;;;;;;;;;;;;22.94;48.72;101460.19;5055067;28;20511;-69
2022/10/16 11:48:36;;;;;;;8.30;2.00;;;;;;;22.88;48.89;101455.41;5054502;28;19947;-71
2022/10/16 11:51:09;;;;;;;11.00;2.17;;;;;;;22.78;48.82;101461.91;5053830;28;20045;-72
2022/10/16 11:53:48;;;;;;;5.95;1.75;;;;;;;22.80;48.69;101467.25;5053964;28;20037;-71